Time;durP1;ratioP1;P1;durP2;ratioP2;P2;SDS_P1;SDS_P2;PMS_P1;PMS_P2;Temp;Humidity;BMP_temperature;BMP_pressure;BME280_temperature;BME280_humidity;BME280_pressure;Samples;Min_cycle;Max_cycle;Signal;HPM_P1;HPM_P2
2023/12/05 00:01:56;;;;;;;3.40;2.50;;;1.00;99.90;;;;;;4996894;28;20233;-73
2023/12/05 00:04:23;;;;;;;7.68;3.22;;;1.10;99.90;;;;;;4992184;28;20207;-71
2023/12/05 00:06:51;;;;;;;3.90;2.25;;;1.10;99.90;;;;;;4992130;28;20210;-72
2023/12/05 00:09:18;;;;;;;2.80;2.35;;;1.20;99.90;;;;;;4991362;28;20231;-72
2023/12/05 00:11:44;;;;;;;3.25;2.95;;;1.30;99.90;;;;;;4992230;28;20603;-72
2023/12/05 00:14:11;;;;;;;3.85;2.30;;;1.30;99.90;;;;;;4996668;28;20237;-72
2023/12/05 04:32:49;;;;;;;1.75;1.65;;;2.50;99.90;;;;;;5042268;22;20242;-92
2023/12/05 04:35:16;;;;;;;2.90;2.15;;;2.50;99.90;;;;;;5042554;28;20294;-91
2023/12/05 04:37:43;;;;;;;1.92;1.80;;;2.50;99.90;;;;;;5048046;28;20583;-92
2023/12/05 04:40:15;;;;;;;2.78;2.58;;;2.50;99.90;;;;;;5055923;28;20210;-92
2023/12/05 04:42:54;;;;;;;2.28;2.08;;;2.50;99.90;;;;;;5021565;28;20240;-93
2023/12/05 04:45:21;;;;;;;1.52;1.40;;;2.50;99.90;;;;;;5020915;28;20225;-92
2023/12/05 04:51:29;;;;;;;1.60;1.27;;;2.50;99.90;;;;;;4980775;22;20229;-71
2023/12/05 04:53:56;;;;;;;2.75;1.73;;;2.50;99.90;;;;;;5031866;28;20202;-71
2023/12/05 04:56:23;;;;;;;1.85;1.40;;;2.50;99.90;;;;;;5032127;28;20213;-70
2023/12/05 04:58:49;;;;;;;2.38;1.90;;;2.60;99.90;;;;;;5031372;28;20567;-69
2023/12/05 05:01:16;;;;;;;2.53;2.03;;;2.60;99.90;;;;;;5031514;28;20303;-71
2023/12/05 05:03:43;;;;;;;2.00;1.80;;;2.60;99.90;;;;;;5031218;28;20576;-71
2023/12/05 05:06:11;;;;;;;1.55;1.45;;;2.60;99.90;;;;;;5031494;28;20223;-70
2023/12/05 05:08:39;;;;;;;2.88;2.33;;;2.60;99.90;;;;;;5031747;28;20210;-71
2023/12/05 05:11:06;;;;;;;2.53;1.92;;;2.60;99.90;;;;;;5032670;28;20229;-72
2023/12/05 05:13:33;;;;;;;2.67;2.03;;;2.70;99.90;;;;;;5033392;28;20202;-71
2023/12/05 05:15:59;;;;;;;2.53;2.00;;;2.70;99.90;;;;;;5031424;28;20217;-71
2023/12/05 05:18:26;;;;;;;2.83;1.77;;;2.70;99.90;;;;;;5031496;28;20292;-73
2023/12/05 05:20:53;;;;;;;3.50;2.40;;;2.70;99.90;;;;;;5030962;28;20449;-73
2023/12/05 05:23:20;;;;;;;2.45;2.25;;;2.70;99.90;;;;;;5031576;28;20734;-73
2023/12/05 05:25:48;;;;;;;1.98;1.77;;;2.70;99.90;;;;;;5031048;28;20739;-72
2023/12/05 05:28:14;;;;;;;1.63;1.52;;;2.70;99.90;;;;;;5030864;28;20209;-72
2023/12/05 05:30:41;;;;;;;3.35;1.95;;;2.70;99.90;;;;;;5032036;28;20256;-72
2023/12/05 05:33:08;;;;;;;2.03;1.73;;;2.70;99.90;;;;;;5029977;28;20225;-73
2023/12/05 05:35:34;;;;;;;2.30;1.85;;;2.80;99.90;;;;;;5030270;28;20399;-72
2023/12/05 05:38:01;;;;;;;2.30;1.50;;;2.70;99.90;;;;;;5039175;28;20202;-73
2023/12/05 05:40:28;;;;;;;2.30;1.70;;;2.70;99.90;;;;;;5031401;28;20600;-73
2023/12/05 05:42:56;;;;;;;1.95;1.63;;;2.70;99.90;;;;;;5038333;28;20206;-73
2023/12/05 05:45:23;;;;;;;2.63;1.92;;;2.70;99.90;;;;;;5036564;28;20223;-72
2023/12/05 05:47:49;;;;;;;2.20;1.65;;;2.60;99.90;;;;;;5032037;28;20206;-73
2023/12/05 05:50:16;;;;;;;2.58;1.90;;;2.60;99.90;;;;;;5032113;28;20209;-72
2023/12/05 05:52:43;;;;;;;1.67;1.58;;;2.60;99.90;;;;;;5032281;28;20243;-72
2023/12/05 05:55:10;;;;;;;1.88;1.73;;;2.60;99.90;;;;;;5032012;28;20207;-72
2023/12/05 05:57:37;;;;;;;3.10;1.63;;;2.60;99.90;;;;;;5037872;28;20647;-71
2023/12/05 06:00:08;;;;;;;2.53;1.95;;;2.60;99.90;;;;;;5032936;28;20221;-73
2023/12/05 06:02:34;;;;;;;1.95;1.75;;;2.50;99.90;;;;;;5032140;28;20233;-73
2023/12/05 06:05:02;;;;;;;1.73;1.63;;;2.50;99.90;;;;;;5031459;28;20211;-73
2023/12/05 06:07:29;;;;;;;2.13;1.95;;;2.60;99.90;;;;;;5031512;28;20203;-73
2023/12/05 06:09:56;;;;;;;2.35;2.15;;;2.50;99.90;;;;;;5031751;28;20210;-73
2023/12/05 06:12:23;;;;;;;1.40;1.30;;;2.50;99.90;;;;;;5031607;28;20530;-72
2023/12/05 06:14:50;;;;;;;2.75;2.35;;;2.40;99.90;;;;;;5029768;28;20216;-72
2023/12/05 06:17:18;;;;;;;2.15;1.67;;;2.40;99.90;;;;;;5030736;28;20202;-73
2023/12/05 06:19:45;;;;;;;1.52;1.42;;;2.40;99.90;;;;;;5037845;28;20692;-74
2023/12/05 06:22:12;;;;;;;3.05;1.83;;;2.40;99.90;;;;;;5031978;28;20669;-71
2023/12/05 06:24:39;;;;;;;3.63;2.22;;;2.40;99.90;;;;;;5031954;28;20206;-71
2023/12/05 06:27:06;;;;;;;2.20;1.60;;;2.40;99.90;;;;;;5030764;28;20700;-73
2023/12/05 06:29:32;;;;;;;1.75;1.30;;;2.40;99.90;;;;;;5031292;28;20198;-72
2023/12/05 06:31:59;;;;;;;1.90;1.60;;;2.40;99.90;;;;;;5031189;28;20233;-71
2023/12/05 06:34:28;;;;;;;2.22;1.70;;;2.40;99.90;;;;;;5032152;28;20209;-73
2023/12/05 06:36:54;;;;;;;2.47;1.55;;;2.40;99.90;;;;;;5031200;28;20203;-72
2023/12/05 06:39:21;;;;;;;2.10;1.90;;;2.40;99.90;;;;;;5032258;28;20198;-72
2023/12/05 06:41:48;;;;;;;2.35;1.63;;;2.40;99.90;;;;;;5031849;28;20229;-71
2023/12/05 06:44:15;;;;;;;2.65;1.77;;;2.40;99.90;;;;;;5032445;28;20210;-71
2023/12/05 06:46:41;;;;;;;2.05;1.52;;;2.40;99.90;;;;;;5032099;28;20236;-74
2023/12/05 06:49:08;;;;;;;2.03;1.85;;;2.40;99.90;;;;;;5031069;28;20562;-74
2023/12/05 06:51:36;;;;;;;1.83;1.48;;;2.30;99.90;;;;;;5031513;28;20317;-74
2023/12/05 06:54:03;;;;;;;1.52;1.42;;;2.30;99.90;;;;;;5031358;28;20205;-75
2023/12/05 06:56:30;;;;;;;1.50;1.40;;;2.40;99.90;;;;;;5031072;28;20666;-74
2023/12/05 06:58:58;;;;;;;2.30;1.17;;;2.40;99.90;;;;;;5030928;28;20232;-74
2023/12/05 07:01:25;;;;;;;1.67;1.08;;;2.40;99.90;;;;;;5031274;28;20225;-74
2023/12/05 07:03:51;;;;;;;2.00;1.38;;;2.40;99.90;;;;;;5031042;28;20208;-73
2023/12/05 07:06:18;;;;;;;2.30;1.63;;;2.40;99.90;;;;;;5032925;28;20222;-72
2023/12/05 07:08:46;;;;;;;1.95;1.40;;;2.30;99.90;;;;;;5034821;28;20664;-71
2023/12/05 07:11:13;;;;;;;1.40;1.30;;;2.40;99.90;;;;;;5030984;28;20230;-72
2023/12/05 07:13:40;;;;;;;2.00;1.40;;;2.40;99.90;;;;;;5031080;28;20213;-72
2023/12/05 07:16:07;;;;;;;3.47;1.50;;;2.40;99.90;;;;;;5030578;28;20206;-73
2023/12/05 07:18:34;;;;;;;2.25;1.65;;;2.40;99.90;;;;;;5030969;28;20210;-72
2023/12/05 07:21:00;;;;;;;1.52;1.02;;;2.50;99.90;;;;;;5031160;28;20232;-74
2023/12/05 07:23:27;;;;;;;2.85;1.75;;;2.60;99.90;;;;;;5031352;28;20575;-74
2023/12/05 07:25:56;;;;;;;1.00;0.90;;;2.60;99.90;;;;;;5031262;28;20230;-74
2023/12/05 07:28:23;;;;;;;1.83;1.67;;;2.60;99.90;;;;;;5034281;28;20201;-73
2023/12/05 07:30:50;;;;;;;1.20;1.10;;;2.60;99.90;;;;;;5034986;28;20280;-72
2023/12/05 07:33:16;;;;;;;0.88;0.82;;;2.70;99.90;;;;;;5033116;28;20679;-72
2023/12/05 07:35:43;;;;;;;2.20;1.50;;;2.70;99.90;;;;;;5034913;28;20207;-73
2023/12/05 07:38:10;;;;;;;3.75;1.75;;;2.60;99.90;;;;;;5040557;28;20634;-73
2023/12/05 07:40:36;;;;;;;1.08;0.88;;;2.70;99.90;;;;;;5034942;28;20226;-73
2023/12/05 07:43:05;;;;;;;2.67;1.40;;;2.80;99.90;;;;;;5034814;28;20219;-73
2023/12/05 07:45:32;;;;;;;1.10;1.00;;;2.80;99.90;;;;;;5029770;28;20667;-73
2023/12/05 07:47:58;;;;;;;1.60;1.50;;;2.80;99.90;;;;;;5028593;28;20588;-72
2023/12/05 07:50:25;;;;;;;3.83;1.40;;;3.00;99.90;;;;;;5031198;28;20762;-72
2023/12/05 07:52:53;;;;;;;3.00;2.00;;;3.10;99.90;;;;;;5031312;28;20658;-72
2023/12/05 07:55:20;;;;;;;1.48;1.17;;;3.40;99.90;;;;;;5031400;28;20229;-73
2023/12/05 07:57:48;;;;;;;1.10;1.00;;;3.70;99.90;;;;;;5032117;28;21534;-72
2023/12/05 08:00:18;;;;;;;1.13;1.00;;;4.10;99.90;;;;;;5031850;28;20468;-72
2023/12/05 08:02:45;;;;;;;0.85;0.82;;;4.60;99.90;;;;;;5030401;28;20205;-72
2023/12/05 08:05:12;;;;;;;0.93;0.77;;;4.80;99.90;;;;;;5029351;28;20305;-72
2023/12/05 08:07:39;;;;;;;1.65;1.35;;;5.10;99.90;;;;;;5028844;28;20283;-73
2023/12/05 08:10:07;;;;;;;1.45;1.35;;;5.30;99.90;;;;;;5031214;28;20288;-73
2023/12/05 08:12:34;;;;;;;3.20;1.38;;;5.90;99.90;;;;;;5030586;28;20249;-71
2023/12/05 08:15:01;;;;;;;1.55;1.25;;;6.20;99.90;;;;;;5032376;28;20210;-72
2023/12/05 08:17:29;;;;;;;1.60;1.30;;;6.20;99.90;;;;;;5029169;28;20248;-73
2023/12/05 08:19:56;;;;;;;2.65;1.45;;;6.30;99.90;;;;;;5029222;28;20587;-73
2023/12/05 08:22:25;;;;;;;1.92;1.10;;;6.40;99.90;;;;;;5028913;28;20221;-73
2023/12/05 08:24:52;;;;;;;1.45;1.20;;;6.70;99.90;;;;;;5029172;28;20203;-73
2023/12/05 08:27:19;;;;;;;1.38;1.10;;;6.80;99.90;;;;;;5028491;28;20218;-73
2023/12/05 08:29:45;;;;;;;1.52;1.30;;;6.70;99.90;;;;;;5028435;28;20616;-73
2023/12/05 08:32:13;;;;;;;1.30;1.20;;;6.70;99.90;;;;;;5028610;28;20226;-73
2023/12/05 08:34:40;;;;;;;2.10;1.20;;;6.60;99.90;;;;;;5029122;28;20297;-73
2023/12/05 08:37:07;;;;;;;2.80;1.35;;;6.60;99.90;;;;;;5028461;28;20201;-73
2023/12/05 08:39:34;;;;;;;2.70;1.40;;;6.60;99.90;;;;;;5028191;28;20256;-73
2023/12/05 08:42:01;;;;;;;1.85;1.35;;;6.60;99.90;;;;;;5028703;28;20702;-73
2023/12/05 08:44:28;;;;;;;2.17;1.20;;;6.60;99.90;;;;;;5028526;28;20198;-73
2023/12/05 08:46:55;;;;;;;1.35;1.25;;;6.80;99.90;;;;;;5028209;28;20291;-73
2023/12/05 08:49:22;;;;;;;1.85;1.10;;;6.80;99.90;;;;;;5028522;28;20250;-73
2023/12/05 08:51:50;;;;;;;3.88;1.85;;;6.30;99.90;;;;;;5028174;28;20232;-73
2023/12/05 08:54:17;;;;;;;1.10;0.98;;;6.10;99.90;;;;;;5028037;28;20205;-73
2023/12/05 08:56:44;;;;;;;1.33;1.20;;;5.80;99.90;;;;;;5028368;28;20206;-74
2023/12/05 08:59:11;;;;;;;2.75;1.33;;;5.70;99.90;;;;;;5027450;28;20260;-74
2023/12/05 09:01:37;;;;;;;1.00;0.90;;;5.60;99.90;;;;;;5026442;28;20222;-74
2023/12/05 09:04:04;;;;;;;1.00;0.90;;;5.70;99.90;;;;;;5028342;28;20216;-74
2023/12/05 09:06:31;;;;;;;1.20;1.10;;;5.60;99.90;;;;;;5027607;28;20226;-73
2023/12/05 09:08:59;;;;;;;1.10;1.00;;;5.70;99.90;;;;;;5027495;28;20580;-73
2023/12/05 09:11:26;;;;;;;1.17;1.00;;;5.80;99.90;;;;;;5027888;28;20232;-73
2023/12/05 09:13:53;;;;;;;1.63;1.00;;;6.20;99.90;;;;;;5028058;28;20228;-75
2023/12/05 09:16:21;;;;;;;3.83;1.52;;;6.60;99.90;;;;;;5030153;28;20198;-75
2023/12/05 09:18:47;;;;;;;1.90;1.00;;;6.80;99.90;;;;;;5027542;28;20217;-75
2023/12/05 09:21:14;;;;;;;1.15;1.00;;;6.80;99.90;;;;;;5027718;28;20228;-74
2023/12/05 09:23:42;;;;;;;2.92;1.33;;;6.40;99.90;;;;;;5028452;28;20209;-73
2023/12/05 09:26:10;;;;;;;3.55;1.30;;;6.20;99.90;;;;;;5027304;28;20214;-73
2023/12/05 09:28:37;;;;;;;1.10;1.00;;;6.20;99.90;;;;;;5027418;28;20646;-73
2023/12/05 09:31:05;;;;;;;1.30;1.20;;;6.30;99.90;;;;;;5027220;28;20240;-72
2023/12/05 09:33:31;;;;;;;2.42;1.10;;;6.10;99.90;;;;;;5027940;28;20218;-73
2023/12/05 09:35:58;;;;;;;4.30;1.15;;;5.90;99.90;;;;;;5027833;28;20518;-73
2023/12/05 09:38:25;;;;;;;1.05;0.90;;;5.70;99.90;;;;;;5027436;28;20202;-73
2023/12/05 09:40:53;;;;;;;1.65;1.15;;;5.60;99.90;;;;;;5026827;28;20225;-73
2023/12/05 09:43:23;;;;;;;1.20;1.10;;;5.50;99.90;;;;;;5027570;28;20240;-73
2023/12/05 09:45:59;;;;;;;1.50;1.17;;;5.50;99.90;;;;;;5026961;28;20210;-73
2023/12/05 09:48:29;;;;;;;1.20;1.08;;;5.70;99.90;;;;;;5026231;28;20225;-73
2023/12/05 09:50:57;;;;;;;4.22;1.58;;;5.90;99.90;;;;;;5026470;28;20241;-71
2023/12/05 09:53:27;;;;;;;1.30;1.10;;;6.30;99.90;;;;;;5027039;28;20303;-72
2023/12/05 09:55:54;;;;;;;1.58;0.90;;;6.70;99.90;;;;;;5027089;28;20670;-73
2023/12/05 09:58:23;;;;;;;4.03;1.50;;;7.80;99.90;;;;;;5026410;28;20210;-73
2023/12/05 10:00:52;;;;;;;3.28;1.33;;;9.20;99.90;;;;;;5026957;28;20226;-74
2023/12/05 10:03:19;;;;;;;1.23;0.80;;;10.50;99.90;;;;;;5024964;28;20199;-74
2023/12/05 10:05:49;;;;;;;2.97;1.10;;;10.40;99.90;;;;;;5026831;28;20255;-73
2023/12/05 10:08:16;;;;;;;3.55;1.10;;;10.00;99.90;;;;;;5026691;28;20218;-74
2023/12/05 10:10:46;;;;;;;2.17;1.55;;;10.00;99.90;;;;;;5026406;28;20714;-73
2023/12/05 10:13:13;;;;;;;1.80;1.50;;;9.40;99.90;;;;;;5026540;28;20206;-72
2023/12/05 10:15:43;;;;;;;1.10;1.00;;;9.70;99.90;;;;;;5026732;28;20258;-72
2023/12/05 10:18:10;;;;;;;1.23;0.90;;;11.60;99.90;;;;;;5026774;28;20671;-72
2023/12/05 10:20:38;;;;;;;4.80;1.38;;;13.60;99.90;;;;;;5026453;28;20265;-73
2023/12/05 10:23:05;;;;;;;1.15;1.00;;;14.60;99.90;;;;;;5026686;28;20217;-77
2023/12/05 10:25:32;;;;;;;1.58;1.10;;;15.20;99.90;;;;;;5027177;28;20209;-75
2023/12/05 10:28:05;;;;;;;2.28;1.00;;;15.10;99.90;;;;;;5026357;28;20613;-74
2023/12/05 10:30:33;;;;;;;1.38;1.13;;;14.90;99.90;;;;;;5027972;28;20209;-75
2023/12/05 10:33:11;;;;;;;2.17;1.02;;;14.00;99.90;;;;;;5026503;28;20208;-75
2023/12/05 10:35:37;;;;;;;1.73;1.40;;;12.40;99.90;;;;;;5030829;28;20267;-74
2023/12/05 10:38:06;;;;;;;1.33;1.23;;;11.70;99.90;;;;;;5030440;28;20288;-74
2023/12/05 10:40:54;;;;;;;1.63;0.90;;;12.50;99.90;;;;;;5030881;28;20908;-74
2023/12/05 10:43:21;;;;;;;1.40;1.20;;;13.40;99.90;;;;;;5027555;28;20292;-74
2023/12/05 10:45:48;;;;;;;1.35;1.25;;;13.40;99.90;;;;;;5030626;28;20582;-73
2023/12/05 10:48:17;;;;;;;1.10;0.95;;;13.50;99.90;;;;;;5030361;28;20222;-74
2023/12/05 10:50:46;;;;;;;1.23;1.13;;;14.20;99.90;;;;;;5030573;28;20602;-74
2023/12/05 10:53:14;;;;;;;3.65;1.30;;;14.50;99.90;;;;;;5030613;28;20221;-74
2023/12/05 10:55:41;;;;;;;1.37;0.90;;;15.10;99.90;;;;;;5030621;28;20301;-75
2023/12/05 10:58:09;;;;;;;2.23;1.10;;;15.80;99.90;;;;;;5030292;28;20967;-73
2023/12/05 11:00:37;;;;;;;1.87;1.00;;;15.80;99.90;;;;;;5030774;28;20558;-75
2023/12/05 11:03:04;;;;;;;1.40;1.20;;;16.40;99.90;;;;;;5034022;28;20460;-75
2023/12/05 11:05:33;;;;;;;1.60;1.17;;;17.60;99.60;;;;;;5034603;28;20461;-75
2023/12/05 11:08:00;;;;;;;2.20;1.07;;;17.80;99.00;;;;;;5034257;28;20489;-75
2023/12/05 11:10:28;;;;;;;1.13;0.90;;;17.50;98.60;;;;;;5034481;28;20472;-75
2023/12/05 11:12:58;;;;;;;2.87;1.30;;;16.90;98.80;;;;;;5034624;28;20964;-74
2023/12/05 11:15:28;;;;;;;1.10;1.00;;;16.80;98.60;;;;;;5034554;28;20981;-75
2023/12/05 11:18:00;;;;;;;1.10;1.00;;;16.20;99.00;;;;;;5034115;28;20458;-75
2023/12/05 11:20:43;;;;;;;2.03;1.77;;;15.10;99.90;;;;;;5034529;28;20465;-75
2023/12/05 11:23:30;;;;;;;1.10;0.80;;;14.00;99.90;;;;;;5034402;28;20467;-74
2023/12/05 11:26:07;;;;;;;3.20;1.15;;;13.00;99.90;;;;;;5034235;28;20467;-74
2023/12/05 11:28:52;;;;;;;1.25;1.00;;;12.20;99.90;;;;;;5033965;28;20232;-74
2023/12/05 11:31:27;;;;;;;1.10;1.00;;;11.70;99.90;;;;;;5030210;28;20229;-74
2023/12/05 11:34:17;;;;;;;1.00;0.90;;;11.00;99.90;;;;;;5034310;28;20208;-74
2023/12/05 11:36:55;;;;;;;3.55;1.35;;;10.40;99.90;;;;;;5022275;28;20208;-74
2023/12/05 11:39:22;;;;;;;1.20;1.10;;;10.00;99.90;;;;;;5030559;28;20212;-74
2023/12/05 11:42:11;;;;;;;1.27;1.08;;;10.00;99.90;;;;;;5034131;28;20628;-74
2023/12/05 11:44:39;;;;;;;1.40;1.08;;;10.20;99.90;;;;;;5032181;28;20295;-74
2023/12/05 11:47:15;;;;;;;1.17;0.90;;;10.30;99.90;;;;;;5033370;28;20228;-74
2023/12/05 11:49:49;;;;;;;1.10;0.95;;;10.40;99.90;;;;;;5029010;28;20239;-74
2023/12/05 11:52:19;;;;;;;1.20;1.00;;;10.40;99.90;;;;;;5029579;28;20230;-74
2023/12/05 11:54:48;;;;;;;1.40;1.00;;;10.60;99.90;;;;;;5029444;28;20208;-74
2023/12/05 11:57:18;;;;;;;1.00;0.90;;;10.60;99.90;;;;;;5029503;28;20226;-74
2023/12/05 11:59:46;;;;;;;2.38;1.35;;;10.80;99.90;;;;;;5029615;28;20300;-74
2023/12/05 12:02:14;;;;;;;1.70;1.50;;;10.30;99.90;;;;;;5029434;28;20529;-74
2023/12/05 12:04:41;;;;;;;2.40;1.25;;;10.10;99.90;;;;;;5029800;28;20212;-74
2023/12/05 12:07:08;;;;;;;1.70;1.20;;;9.90;99.90;;;;;;5029045;28;20226;-74
2023/12/05 12:09:40;;;;;;;1.20;1.10;;;9.70;99.90;;;;;;5029442;28;20742;-74
2023/12/05 12:12:08;;;;;;;1.35;1.08;;;9.70;99.90;;;;;;5028829;28;20230;-74
2023/12/05 12:14:37;;;;;;;0.98;0.88;;;9.80;99.90;;;;;;5029294;28;20555;-73
2023/12/05 12:17:07;;;;;;;1.02;0.93;;;9.80;99.90;;;;;;5028661;28;20233;-73
2023/12/05 12:19:38;;;;;;;1.00;0.90;;;9.70;99.90;;;;;;5029644;28;20252;-73
2023/12/05 12:22:07;;;;;;;0.98;0.88;;;9.20;99.90;;;;;;5028266;28;20304;-75
2023/12/05 12:24:34;;;;;;;1.15;1.05;;;9.00;99.90;;;;;;5029268;28;20209;-74
2023/12/05 12:27:03;;;;;;;1.70;0.93;;;8.60;99.90;;;;;;5029703;28;20293;-74
2023/12/05 12:29:30;;;;;;;0.98;0.88;;;8.50;99.90;;;;;;5031261;28;20340;-73
2023/12/05 12:32:09;;;;;;;1.73;0.85;;;8.80;99.90;;;;;;5029766;28;20230;-74
2023/12/05 12:34:37;;;;;;;1.50;1.15;;;9.10;99.90;;;;;;5028699;28;20206;-73
2023/12/05 12:37:05;;;;;;;3.47;1.65;;;9.10;99.90;;;;;;5027942;28;20305;-72
2023/12/05 12:39:34;;;;;;;3.97;1.13;;;9.10;99.90;;;;;;5028133;28;20298;-72
2023/12/05 12:42:03;;;;;;;1.23;0.90;;;8.90;99.90;;;;;;5026664;28;20319;-71
2023/12/05 12:44:30;;;;;;;1.20;1.00;;;8.70;99.90;;;;;;5028622;28;20214;-73
2023/12/05 12:46:58;;;;;;;1.17;0.90;;;8.50;99.90;;;;;;5027968;28;20209;-73
2023/12/05 12:49:25;;;;;;;1.75;1.33;;;8.10;99.90;;;;;;5028625;28;20202;-73
2023/12/05 12:51:55;;;;;;;1.30;1.00;;;8.10;99.90;;;;;;5028767;28;20241;-71
2023/12/05 12:54:22;;;;;;;2.20;1.02;;;8.10;99.90;;;;;;5028995;28;20588;-72
2023/12/05 12:56:50;;;;;;;3.45;2.35;;;8.00;99.90;;;;;;5028263;28;20209;-73
2023/12/05 12:59:18;;;;;;;1.75;1.13;;;8.00;99.90;;;;;;5028119;28;20217;-73
2023/12/05 13:01:45;;;;;;;1.33;1.08;;;8.10;99.90;;;;;;5028328;28;20233;-73
2023/12/05 13:04:12;;;;;;;2.20;0.90;;;7.90;99.90;;;;;;5028606;28;20326;-74
2023/12/05 13:06:40;;;;;;;1.30;1.20;;;7.90;99.90;;;;;;5028326;28;20554;-74
2023/12/05 13:09:11;;;;;;;1.30;1.20;;;7.90;99.90;;;;;;5027585;28;20240;-73
2023/12/05 13:11:38;;;;;;;1.42;1.13;;;7.90;99.90;;;;;;5028016;28;20234;-74
2023/12/05 13:14:10;;;;;;;3.60;1.10;;;8.00;99.90;;;;;;5027943;28;20213;-73
2023/12/05 13:16:42;;;;;;;2.00;1.05;;;8.20;99.90;;;;;;5025956;28;20207;-73
2023/12/05 13:19:21;;;;;;;1.80;1.40;;;8.60;99.90;;;;;;5027111;28;20293;-72
2023/12/05 13:21:48;;;;;;;1.20;0.93;;;8.50;99.90;;;;;;5026182;28;20226;-74
2023/12/05 13:24:15;;;;;;;2.30;1.27;;;8.30;99.90;;;;;;5027663;28;20208;-72
2023/12/05 13:26:42;;;;;;;0.95;0.80;;;8.10;99.90;;;;;;5027468;28;20205;-72
2023/12/05 13:29:09;;;;;;;1.67;1.10;;;7.70;99.90;;;;;;5026773;28;20309;-72
2023/12/05 13:31:35;;;;;;;0.80;0.75;;;7.50;99.90;;;;;;5027916;28;20222;-72
2023/12/05 13:34:04;;;;;;;1.40;1.20;;;7.40;99.90;;;;;;5027551;28;20617;-74
2023/12/05 13:36:31;;;;;;;1.25;0.90;;;7.50;99.90;;;;;;5027454;28;20209;-73
2023/12/05 13:38:57;;;;;;;1.55;1.15;;;7.40;99.90;;;;;;5026830;28;20201;-74
2023/12/05 13:41:24;;;;;;;1.10;1.00;;;7.30;99.90;;;;;;5027852;28;20229;-74
2023/12/05 13:43:52;;;;;;;2.22;1.10;;;7.30;99.90;;;;;;5027188;28;20237;-73
2023/12/05 13:46:19;;;;;;;4.82;1.77;;;7.20;99.90;;;;;;5027277;28;20689;-73
2023/12/05 13:48:46;;;;;;;1.73;1.50;;;7.10;99.90;;;;;;5026655;28;20305;-73
2023/12/05 13:51:14;;;;;;;1.48;0.90;;;6.90;99.90;;;;;;5028271;28;20396;-73
2023/12/05 13:53:42;;;;;;;1.10;1.00;;;6.80;99.90;;;;;;5028499;28;20214;-72
2023/12/05 13:56:10;;;;;;;3.65;1.40;;;6.60;99.90;;;;;;5027249;28;20322;-72
2023/12/05 13:58:37;;;;;;;1.20;1.10;;;6.50;99.90;;;;;;5026908;28;20198;-73
2023/12/05 14:01:04;;;;;;;1.63;1.00;;;6.40;99.90;;;;;;5026990;28;20218;-73
2023/12/05 14:03:31;;;;;;;2.08;1.00;;;6.30;99.90;;;;;;5027660;28;20216;-72
2023/12/05 14:05:58;;;;;;;2.45;1.30;;;6.20;99.90;;;;;;5026284;28;20772;-73
2023/12/05 14:08:26;;;;;;;1.90;1.33;;;6.20;99.90;;;;;;5026990;28;20221;-72
2023/12/05 14:10:53;;;;;;;1.00;0.90;;;6.20;99.90;;;;;;5026120;28;20222;-72
2023/12/05 14:13:20;;;;;;;1.42;1.00;;;6.10;99.90;;;;;;5026963;28;20209;-72
2023/12/05 14:15:48;;;;;;;2.95;0.80;;;6.10;99.90;;;;;;5027521;28;20208;-72
2023/12/05 14:18:15;;;;;;;1.45;1.02;;;6.00;99.90;;;;;;5026916;28;20197;-74
2023/12/05 14:20:42;;;;;;;1.00;0.90;;;6.00;99.90;;;;;;5026221;28;20303;-74
2023/12/05 14:23:08;;;;;;;1.20;1.10;;;6.00;99.90;;;;;;5026727;28;20217;-73
2023/12/05 14:25:37;;;;;;;2.35;1.27;;;6.00;99.90;;;;;;5026801;28;20229;-75
2023/12/05 14:28:04;;;;;;;2.13;1.85;;;6.00;99.90;;;;;;5026921;28;20230;-75
2023/12/05 14:30:31;;;;;;;2.13;1.38;;;6.00;99.90;;;;;;5027702;28;20721;-75
2023/12/05 14:32:58;;;;;;;5.38;1.15;;;6.10;99.90;;;;;;5026034;28;20198;-74
2023/12/05 14:35:24;;;;;;;1.60;1.13;;;6.00;99.90;;;;;;5026407;28;20224;-74
2023/12/05 14:37:51;;;;;;;2.03;1.40;;;5.90;99.90;;;;;;5026388;28;20212;-73
2023/12/05 14:40:18;;;;;;;2.17;1.00;;;5.90;99.90;;;;;;5026433;28;20681;-73
2023/12/05 14:42:46;;;;;;;1.13;1.02;;;5.90;99.90;;;;;;5026321;28;20243;-75
2023/12/05 14:45:13;;;;;;;2.40;1.13;;;5.80;99.90;;;;;;5027085;28;20551;-74
2023/12/05 14:47:39;;;;;;;2.47;1.23;;;5.80;99.90;;;;;;5026821;28;20213;-74
2023/12/05 14:50:06;;;;;;;2.13;1.23;;;5.70;99.90;;;;;;5025227;28;20212;-74
2023/12/05 14:52:33;;;;;;;0.98;0.88;;;5.60;99.90;;;;;;5026557;28;20247;-73
2023/12/05 14:55:00;;;;;;;2.28;1.00;;;5.60;99.90;;;;;;5030136;28;20582;-74
2023/12/05 14:57:27;;;;;;;0.95;0.70;;;5.50;99.90;;;;;;5030512;28;20212;-74
2023/12/05 14:59:55;;;;;;;1.88;1.23;;;5.40;99.90;;;;;;5030319;28;20208;-73
2023/12/05 15:02:22;;;;;;;1.00;0.90;;;5.40;99.90;;;;;;5030744;28;20218;-74
2023/12/05 15:04:49;;;;;;;1.08;0.75;;;5.30;99.90;;;;;;5030480;28;20205;-73
2023/12/05 15:07:16;;;;;;;1.52;1.17;;;5.30;99.90;;;;;;5030153;28;20209;-73
2023/12/05 15:09:42;;;;;;;1.10;1.00;;;5.20;99.90;;;;;;5030670;28;20221;-74
2023/12/05 15:12:09;;;;;;;1.85;1.30;;;5.20;99.90;;;;;;5030176;28;20232;-74
2023/12/05 15:14:36;;;;;;;3.58;1.25;;;5.20;99.90;;;;;;5030784;28;20590;-73
2023/12/05 15:17:04;;;;;;;2.60;1.25;;;5.10;99.90;;;;;;5029792;28;20580;-73
2023/12/05 15:19:31;;;;;;;2.08;0.90;;;5.10;99.90;;;;;;5030756;28;20205;-74
2023/12/05 15:21:58;;;;;;;4.68;1.33;;;5.20;99.90;;;;;;5030141;28;20752;-74
2023/12/05 15:24:25;;;;;;;1.02;0.93;;;5.10;99.90;;;;;;5030862;28;20205;-74
2023/12/05 15:26:51;;;;;;;1.00;0.80;;;5.10;99.90;;;;;;5029777;28;20682;-74
2023/12/05 15:29:18;;;;;;;4.30;1.00;;;5.10;99.90;;;;;;5030382;28;20257;-74
2023/12/05 15:31:44;;;;;;;1.30;1.20;;;5.00;99.90;;;;;;5030422;28;20606;-74
2023/12/05 15:34:15;;;;;;;1.90;0.90;;;5.00;99.90;;;;;;5030327;28;20205;-74
2023/12/05 15:36:42;;;;;;;2.17;0.80;;;5.00;99.90;;;;;;5029006;28;20204;-74
2023/12/05 15:39:09;;;;;;;2.28;1.02;;;5.00;99.90;;;;;;5029403;28;20212;-74
2023/12/05 15:41:36;;;;;;;1.23;0.85;;;4.90;99.90;;;;;;5029934;28;20223;-74
2023/12/05 15:44:03;;;;;;;2.92;1.15;;;4.90;99.90;;;;;;5029024;28;20627;-73
2023/12/05 15:46:30;;;;;;;8.77;1.23;;;4.90;99.90;;;;;;5029629;28;20219;-74
2023/12/05 15:48:57;;;;;;;1.08;0.85;;;4.90;99.90;;;;;;5031436;28;20661;-73
2023/12/05 15:51:25;;;;;;;1.52;1.00;;;4.90;99.90;;;;;;5033184;28;20234;-73
2023/12/05 15:53:52;;;;;;;1.65;1.02;;;4.80;99.90;;;;;;5032352;28;20224;-73
2023/12/05 15:56:18;;;;;;;9.63;1.27;;;4.80;99.90;;;;;;5031962;28;20677;-73
2023/12/05 15:58:45;;;;;;;1.65;1.30;;;4.80;99.90;;;;;;5033292;28;20205;-73
2023/12/05 16:01:12;;;;;;;2.13;1.50;;;4.80;99.90;;;;;;5032633;28;20232;-73
2023/12/05 16:03:38;;;;;;;1.05;0.80;;;4.90;99.90;;;;;;5033297;28;20215;-74
2023/12/05 16:06:06;;;;;;;4.78;1.02;;;4.90;99.90;;;;;;5032572;28;20214;-73
2023/12/05 16:08:34;;;;;;;2.28;1.52;;;4.80;99.90;;;;;;5033032;28;20227;-73
2023/12/05 16:11:01;;;;;;;1.70;1.10;;;4.80;99.90;;;;;;5032664;28;20610;-73
2023/12/05 16:13:28;;;;;;;0.80;0.70;;;4.80;99.90;;;;;;5033244;28;20208;-74
2023/12/05 16:15:54;;;;;;;2.67;1.27;;;4.70;99.90;;;;;;5033009;28;20835;-73
2023/12/05 16:18:21;;;;;;;4.00;1.00;;;4.70;99.90;;;;;;5032319;28;20218;-73
2023/12/05 16:20:49;;;;;;;1.73;1.13;;;4.80;99.90;;;;;;5031643;28;20240;-73
2023/12/05 16:23:15;;;;;;;1.30;1.00;;;4.80;99.90;;;;;;5032148;28;20219;-74
2023/12/05 16:25:44;;;;;;;2.05;1.00;;;4.80;99.90;;;;;;5026218;28;20212;-74
2023/12/05 16:28:11;;;;;;;2.30;1.20;;;4.70;99.90;;;;;;5024248;28;20205;-73
2023/12/05 16:30:39;;;;;;;1.52;1.17;;;4.70;99.90;;;;;;5025184;28;20351;-73
2023/12/05 16:33:07;;;;;;;4.82;1.23;;;4.60;99.90;;;;;;5025183;28;20208;-74
2023/12/05 16:35:34;;;;;;;1.55;0.80;;;4.60;99.90;;;;;;5025833;28;20209;-74
2023/12/05 16:38:01;;;;;;;1.23;1.00;;;4.60;99.90;;;;;;5027733;28;20675;-73
2023/12/05 16:40:27;;;;;;;1.75;1.15;;;4.60;99.90;;;;;;5027781;28;20217;-74
2023/12/05 16:42:55;;;;;;;2.80;1.20;;;4.50;99.90;;;;;;5028386;28;20680;-74
2023/12/05 16:45:22;;;;;;;2.10;1.10;;;4.60;99.90;;;;;;5025858;28;20241;-73
2023/12/05 16:47:50;;;;;;;1.00;0.90;;;4.50;99.90;;;;;;5026525;28;20239;-73
2023/12/05 16:50:17;;;;;;;1.42;1.23;;;4.50;99.90;;;;;;5027377;28;20708;-74
2023/12/05 16:52:44;;;;;;;1.35;1.00;;;4.50;99.90;;;;;;5028329;28;20219;-74
2023/12/05 16:55:10;;;;;;;6.35;2.05;;;4.50;99.90;;;;;;5026903;28;20209;-74
2023/12/05 16:57:37;;;;;;;1.80;1.35;;;4.50;99.90;;;;;;5026651;28;20208;-73
2023/12/05 17:00:08;;;;;;;0.90;0.80;;;4.50;99.90;;;;;;5016225;28;20226;-74
2023/12/05 17:02:35;;;;;;;1.60;1.20;;;4.50;99.90;;;;;;5019735;28;20248;-74
2023/12/05 17:05:02;;;;;;;2.22;1.10;;;4.50;99.90;;;;;;5014120;28;20220;-72
2023/12/05 17:07:29;;;;;;;3.65;1.10;;;4.50;99.90;;;;;;5019461;28;20212;-73
2023/12/05 17:09:56;;;;;;;1.05;0.85;;;4.50;99.90;;;;;;5013910;28;20598;-73
2023/12/05 17:12:23;;;;;;;1.67;1.52;;;4.40;99.90;;;;;;5015659;28;20223;-74
2023/12/05 17:14:50;;;;;;;1.02;0.93;;;4.40;99.90;;;;;;5013323;28;20650;-74
2023/12/05 17:17:18;;;;;;;1.50;1.40;;;4.40;99.90;;;;;;5017014;28;22944;-72
2023/12/05 17:19:46;;;;;;;1.00;0.90;;;4.40;99.90;;;;;;5030639;28;20461;-71